createdAt,value
2018-06-07T00:02:18.432Z,11.13
2018-06-07T00:04:45.823Z,10.50
2018-06-07T00:07:14.021Z,11.23
2018-06-07T00:09:45.434Z,11.67
2018-06-07T00:12:14.018Z,12.10
2018-06-07T00:14:43.676Z,11.78
2018-06-07T00:17:12.936Z,10.55
2018-06-07T00:19:40.399Z,11.13
2018-06-07T00:22:08.107Z,10.63
2018-06-07T00:24:38.187Z,11.00
2018-06-07T00:27:06.839Z,10.93
2018-06-07T00:29:34.212Z,12.00
2018-06-07T00:32:01.630Z,11.18
2018-06-07T00:34:29.125Z,12.65
2018-06-07T00:36:56.742Z,12.07
2018-06-07T00:39:24.111Z,12.28
2018-06-07T00:41:52.039Z,12.15
2018-06-07T00:44:19.441Z,11.70
2018-06-07T00:46:47.304Z,11.22
2018-06-07T00:49:15.375Z,11.97
2018-06-07T00:51:43.173Z,11.70
2018-06-07T00:54:10.514Z,11.12
2018-06-07T00:56:44.543Z,12.35
2018-06-07T00:59:11.966Z,11.93
2018-06-07T01:01:39.614Z,10.82
2018-06-07T01:04:06.975Z,11.95
2018-06-07T01:06:38.431Z,11.70
2018-06-07T01:09:06.666Z,11.73
2018-06-07T01:11:34.297Z,11.53
2018-06-07T01:14:07.849Z,10.97
2018-06-07T01:16:39.911Z,11.55
2018-06-07T01:19:07.297Z,13.10
2018-06-07T01:21:35.403Z,11.83
2018-06-07T01:24:03.347Z,13.38
2018-06-07T01:26:33.746Z,13.25
2018-06-07T01:29:02.400Z,11.88
2018-06-07T01:31:43.170Z,12.53
2018-06-07T01:34:11.399Z,12.95
2018-06-07T01:36:39.060Z,10.78
2018-06-07T01:48:51.588Z,12.53
2018-06-07T01:51:18.917Z,13.88
2018-06-07T01:53:46.688Z,14.18
2018-06-07T01:56:14.113Z,13.83
2018-06-07T01:58:42.689Z,13.48
2018-06-07T02:01:10.046Z,12.65
2018-06-07T02:03:41.951Z,13.20
2018-06-07T02:06:14.317Z,13.20
2018-06-07T02:08:42.132Z,13.00
2018-06-07T02:11:10.649Z,13.08
2018-06-07T02:13:41.991Z,13.20
2018-06-07T02:16:09.917Z,13.50
2018-06-07T02:18:37.869Z,13.25
2018-06-07T02:21:10.233Z,12.68
2018-06-07T02:23:39.466Z,14.05
2018-06-07T02:26:07.267Z,12.40
2018-06-07T02:28:34.659Z,12.58
2018-06-07T02:31:05.555Z,14.30
2018-06-07T02:33:33.342Z,13.40
2018-06-07T02:36:00.822Z,12.70
2018-06-07T02:38:28.137Z,12.73
2018-06-07T02:40:55.922Z,13.62
2018-06-07T02:43:23.237Z,13.40
2018-06-07T02:45:54.785Z,13.83
2018-06-07T02:48:22.635Z,13.28
2018-06-07T02:50:56.108Z,13.10
2018-06-07T02:53:24.349Z,13.62
2018-06-07T02:55:53.181Z,12.80
2018-06-07T02:58:21.258Z,15.75
2018-06-07T03:00:57.552Z,14.30
2018-06-07T03:03:25.555Z,13.05
2018-06-07T03:05:53.175Z,14.10
2018-06-07T03:08:20.676Z,13.90
2018-06-07T03:10:48.569Z,12.90
2018-06-07T03:13:18.184Z,13.80
2018-06-07T03:15:46.541Z,13.30
2018-06-07T03:18:13.996Z,13.30
2018-06-07T03:20:41.349Z,13.28
2018-06-07T03:23:13.040Z,13.70
2018-06-07T03:25:40.853Z,13.70
2018-06-07T03:28:12.552Z,13.85
2018-06-07T03:30:39.913Z,15.08
2018-06-07T03:33:07.883Z,13.72
2018-06-07T03:35:36.113Z,13.90
2018-06-07T03:38:03.545Z,13.25
2018-06-07T03:40:30.870Z,13.30
2018-06-07T03:43:02.889Z,13.43
2018-06-07T03:45:34.268Z,12.00
2018-06-07T03:48:02.684Z,12.55
2018-06-07T03:50:34.469Z,13.08
2018-06-07T03:53:02.377Z,13.48
2018-06-07T03:55:30.543Z,12.80
2018-06-07T03:57:58.722Z,14.38
2018-06-07T04:00:26.228Z,12.88
2018-06-07T04:02:53.595Z,13.70
2018-06-07T04:05:28.083Z,12.23
2018-06-07T04:07:55.481Z,11.28
2018-06-07T04:10:23.314Z,12.23
2018-06-07T04:12:54.583Z,12.80
2018-06-07T04:15:21.951Z,12.15
2018-06-07T04:27:36.418Z,12.05
2018-06-07T04:30:07.961Z,11.85
2018-06-07T04:32:36.664Z,10.50
2018-06-07T04:35:04.572Z,12.00
2018-06-07T04:37:36.984Z,10.70
2018-06-07T04:40:06.104Z,11.90
2018-06-07T04:42:33.484Z,11.10
2018-06-07T04:45:01.147Z,11.12
2018-06-07T04:47:28.557Z,10.13
2018-06-07T04:50:00.376Z,11.77
2018-06-07T04:52:28.165Z,11.63
2018-06-07T04:54:56.267Z,12.23
2018-06-07T04:57:23.711Z,11.40
2018-06-07T04:59:51.083Z,11.50
2018-06-07T05:15:18.370Z,11.77
2018-06-07T05:17:45.688Z,9.30
2018-06-07T05:20:13.021Z,10.30
2018-06-07T05:22:40.285Z,9.20
2018-06-07T05:25:07.563Z,10.33
2018-06-07T05:27:34.834Z,10.80
2018-06-07T05:30:02.102Z,10.23
2018-06-07T05:32:29.407Z,10.70
2018-06-07T05:34:56.648Z,8.97
2018-06-07T05:37:24.095Z,9.40
2018-06-07T05:39:51.359Z,10.40
2018-06-07T05:42:19.011Z,8.83
2018-06-07T05:44:46.345Z,9.00
2018-06-07T05:47:13.667Z,7.80
2018-06-07T05:49:40.951Z,8.43
2018-06-07T05:52:08.251Z,8.90
2018-06-07T05:54:35.494Z,7.80
2018-06-07T05:57:02.771Z,9.23
2018-06-07T05:59:30.076Z,9.00
2018-06-07T06:01:57.348Z,8.50
2018-06-07T06:04:24.614Z,9.70
2018-06-07T06:06:51.916Z,9.17
2018-06-07T06:09:19.938Z,8.57
2018-06-07T06:11:47.215Z,8.67
2018-06-07T06:14:14.536Z,9.43
2018-06-07T06:16:41.838Z,9.67
2018-06-07T06:19:09.373Z,8.37
2018-06-07T06:21:36.643Z,8.73
2018-06-07T06:24:03.928Z,9.40
2018-06-07T06:26:31.208Z,10.00
2018-06-07T06:28:58.521Z,9.00
2018-06-07T06:31:25.919Z,8.97
2018-06-07T06:33:53.248Z,8.73
2018-06-07T06:36:20.583Z,8.20
2018-06-07T06:38:48.462Z,8.50
2018-06-07T06:41:15.772Z,9.37
2018-06-07T06:43:43.155Z,8.63
2018-06-07T06:46:10.453Z,8.77
2018-06-07T06:48:37.866Z,10.00
2018-06-07T06:51:05.242Z,9.67
2018-06-07T06:53:32.552Z,9.30
2018-06-07T06:55:59.900Z,10.47
2018-06-07T06:58:27.168Z,10.60
2018-06-07T07:00:54.506Z,9.47
2018-06-07T07:03:21.789Z,10.20
2018-06-07T07:05:49.063Z,9.73
2018-06-07T07:08:16.343Z,9.53
2018-06-07T07:10:43.693Z,9.33
2018-06-07T07:13:11.036Z,10.43
2018-06-07T07:15:38.354Z,10.60
2018-06-07T07:18:05.711Z,11.53
2018-06-07T07:20:33.036Z,9.87
2018-06-07T07:23:00.331Z,9.97
2018-06-07T07:25:27.720Z,10.43
2018-06-07T07:27:55.014Z,11.60
2018-06-07T07:30:22.292Z,9.93
2018-06-07T07:32:49.599Z,9.50
2018-06-07T07:35:16.912Z,11.13
2018-06-07T07:37:44.227Z,10.50
2018-06-07T07:40:11.509Z,10.27
2018-06-07T07:42:38.853Z,11.00
2018-06-07T07:45:06.151Z,10.83
2018-06-07T07:47:33.473Z,11.33
2018-06-07T07:50:00.888Z,11.23
2018-06-07T07:52:28.282Z,10.70
2018-06-07T07:54:55.600Z,11.83
2018-06-07T07:57:22.912Z,11.90
2018-06-07T07:59:50.269Z,11.93
2018-06-07T08:02:17.499Z,12.00
2018-06-07T08:04:44.796Z,13.00
2018-06-07T08:07:12.124Z,11.30
2018-06-07T08:09:39.424Z,12.33
2018-06-07T08:12:06.699Z,11.23
2018-06-07T08:14:33.986Z,11.93
2018-06-07T08:17:01.309Z,12.73
2018-06-07T08:19:28.588Z,12.30
2018-06-07T08:21:55.899Z,13.33
2018-06-07T08:24:23.259Z,13.40
2018-06-07T08:26:50.675Z,11.73
2018-06-07T08:29:18.009Z,11.70
2018-06-07T08:31:45.342Z,12.80
2018-06-07T08:34:12.716Z,12.90
2018-06-07T08:36:39.994Z,12.50
2018-06-07T08:39:07.793Z,12.40
2018-06-07T08:41:35.118Z,13.17
2018-06-07T08:44:02.421Z,12.60
2018-06-07T08:46:29.706Z,11.17
2018-06-07T08:48:57.109Z,12.60
2018-06-07T08:51:24.568Z,13.90
2018-06-07T08:53:51.767Z,12.30
2018-06-07T08:56:19.151Z,12.70
2018-06-07T08:58:46.442Z,11.93
2018-06-07T09:01:13.757Z,12.20
2018-06-07T09:03:41.053Z,12.83
2018-06-07T09:06:08.509Z,11.80
2018-06-07T09:08:35.865Z,12.07
2018-06-07T09:11:03.212Z,13.13
2018-06-07T09:13:30.524Z,12.97
2018-06-07T09:15:57.855Z,12.10
2018-06-07T09:18:25.200Z,11.80
2018-06-07T09:20:52.547Z,13.57
2018-06-07T09:23:19.857Z,11.57
2018-06-07T09:25:47.195Z,14.50
2018-06-07T09:28:14.520Z,12.57
2018-06-07T09:30:41.825Z,12.60
2018-06-07T09:33:09.280Z,12.30
2018-06-07T09:35:36.698Z,13.47
2018-06-07T09:38:03.959Z,12.97
2018-06-07T09:40:31.305Z,13.80
2018-06-07T09:42:58.640Z,13.10
2018-06-07T09:45:25.975Z,13.00
2018-06-07T09:47:53.327Z,11.87
2018-06-07T09:50:20.658Z,13.40
2018-06-07T09:52:48.010Z,13.97
2018-06-07T09:55:15.278Z,12.50
2018-06-07T09:57:42.644Z,11.63
2018-06-07T10:00:14.585Z,12.73
2018-06-07T10:02:42.153Z,11.30
2018-06-07T10:05:09.738Z,12.63
2018-06-07T10:07:37.160Z,11.77
2018-06-07T10:10:04.949Z,11.47
2018-06-07T10:12:32.427Z,12.10
2018-06-07T10:15:04.456Z,13.07
2018-06-07T10:17:33.372Z,12.40
2018-06-07T10:20:05.819Z,11.40
2018-06-07T10:22:33.228Z,13.13
2018-06-07T10:25:01.622Z,12.73
2018-06-07T10:27:29.821Z,12.50
2018-06-07T10:29:57.355Z,12.07
2018-06-07T10:32:25.059Z,13.63
2018-06-07T10:44:41.724Z,11.60
2018-06-07T10:47:09.082Z,12.13
2018-06-07T10:49:36.551Z,12.00
2018-06-07T10:52:04.426Z,11.97
2018-06-07T10:54:31.760Z,11.07
2018-06-07T10:56:59.151Z,11.83
2018-06-07T10:59:27.264Z,12.33
2018-06-07T11:01:54.636Z,11.87
2018-06-07T11:04:22.038Z,10.83
2018-06-07T11:06:49.459Z,10.90
2018-06-07T11:09:16.975Z,10.60
2018-06-07T11:11:44.361Z,11.60
2018-06-07T11:14:15.593Z,10.97
2018-06-07T11:16:43.040Z,11.90
2018-06-07T11:19:10.505Z,11.33
2018-06-07T11:21:37.932Z,11.73
2018-06-07T11:24:05.369Z,10.73
2018-06-07T11:26:36.937Z,11.10
2018-06-07T11:29:04.413Z,11.23
2018-06-07T11:31:31.857Z,10.00
2018-06-07T11:33:59.771Z,10.67
2018-06-07T11:36:27.171Z,10.00
2018-06-07T11:38:54.618Z,10.33
2018-06-07T11:41:22.011Z,11.23
2018-06-07T11:43:50.126Z,11.60
2018-06-07T11:46:17.497Z,11.00
2018-06-07T11:48:44.893Z,10.50
2018-06-07T11:51:12.480Z,10.90
2018-06-07T11:53:40.742Z,11.20
2018-06-07T11:56:08.471Z,10.90
2018-06-07T11:58:35.987Z,11.33
2018-06-07T12:01:03.443Z,11.07
2018-06-07T12:03:31.145Z,10.33
2018-06-07T12:05:59.283Z,11.13
2018-06-07T12:08:27.265Z,11.10
2018-06-07T12:10:54.679Z,10.90
2018-06-07T12:13:26.880Z,11.50
2018-06-07T12:15:55.072Z,11.10
2018-06-07T12:18:22.431Z,10.53
2018-06-07T12:20:49.776Z,10.73
2018-06-07T12:23:17.053Z,11.00
2018-06-07T12:25:44.418Z,10.70
2018-06-07T12:28:11.721Z,11.80
2018-06-07T12:30:39.085Z,10.50
2018-06-07T12:33:06.405Z,11.50
2018-06-07T12:35:33.786Z,10.57
2018-06-07T12:38:01.088Z,11.03
2018-06-07T12:40:28.508Z,10.33
2018-06-07T12:42:55.792Z,11.67
2018-06-07T12:45:23.128Z,11.07
2018-06-07T12:47:50.468Z,9.17
2018-06-07T12:50:17.821Z,10.20
2018-06-07T12:52:45.126Z,9.17
2018-06-07T12:55:12.437Z,9.90
2018-06-07T12:57:39.756Z,10.40
2018-06-07T13:00:07.150Z,9.93
2018-06-07T13:02:34.526Z,10.50
2018-06-07T13:05:01.828Z,9.73
2018-06-07T13:07:29.156Z,10.77
2018-06-07T13:09:56.468Z,9.60
2018-06-07T13:12:23.839Z,10.57
2018-06-07T13:14:51.119Z,10.47
2018-06-07T13:17:18.566Z,9.80
2018-06-07T13:19:45.876Z,9.17
2018-06-07T13:22:13.224Z,8.93
2018-06-07T13:24:40.534Z,10.30
2018-06-07T13:27:07.851Z,9.43
2018-06-07T13:29:35.138Z,9.20
2018-06-07T13:32:02.461Z,8.77
2018-06-07T13:34:29.819Z,9.30
2018-06-07T13:36:57.159Z,9.10
2018-06-07T13:39:24.456Z,9.50
2018-06-07T13:41:51.783Z,10.27
2018-06-07T13:44:19.132Z,10.40
2018-06-07T13:46:46.455Z,10.00
2018-06-07T13:49:13.835Z,10.07
2018-06-07T13:51:41.133Z,9.90
2018-06-07T13:54:08.496Z,9.57
2018-06-07T13:56:36.012Z,10.63
2018-06-07T13:59:03.379Z,10.47
2018-06-07T14:01:30.779Z,10.30
2018-06-07T14:03:58.114Z,9.97
2018-06-07T14:06:25.465Z,10.33
2018-06-07T14:08:52.823Z,10.33
2018-06-07T14:11:20.171Z,10.20
2018-06-07T14:13:47.759Z,9.13
2018-06-07T14:16:15.078Z,10.07
2018-06-07T14:18:42.450Z,9.27
2018-06-07T14:21:09.821Z,9.63
2018-06-07T14:23:37.198Z,9.80
2018-06-07T14:26:04.561Z,10.63
2018-06-07T14:28:31.997Z,9.10
2018-06-07T14:30:59.388Z,10.63
2018-06-07T14:33:26.740Z,9.20
2018-06-07T14:35:54.172Z,9.10
2018-06-07T14:38:21.529Z,9.40
2018-06-07T14:40:48.922Z,9.20
2018-06-07T14:43:16.264Z,9.17
2018-06-07T14:45:43.618Z,9.50
2018-06-07T14:48:11.002Z,13.00
2018-06-07T14:50:38.321Z,8.47
2018-06-07T14:53:05.773Z,8.80
2018-06-07T14:55:33.142Z,8.40
2018-06-07T14:58:00.504Z,9.53
2018-06-07T15:00:28.827Z,9.03
2018-06-07T15:02:56.220Z,10.17
2018-06-07T15:05:23.589Z,9.20
2018-06-07T15:07:50.971Z,9.70
2018-06-07T15:10:18.333Z,9.90
2018-06-07T15:12:45.714Z,9.57
2018-06-07T15:15:13.092Z,9.87
2018-06-07T15:17:40.497Z,9.10
2018-06-07T15:20:07.867Z,9.80
2018-06-07T15:22:35.244Z,8.70
2018-06-07T15:25:02.597Z,8.13
2018-06-07T15:27:29.946Z,8.80
2018-06-07T15:29:57.283Z,9.00
2018-06-07T15:32:24.717Z,8.87
2018-06-07T15:34:52.114Z,8.23
2018-06-07T15:37:19.464Z,8.43
2018-06-07T15:39:46.806Z,9.10
2018-06-07T15:42:14.176Z,8.57
2018-06-07T15:44:42.391Z,8.80
2018-06-07T15:47:09.798Z,9.57
2018-06-07T15:49:37.178Z,9.20
2018-06-07T15:52:04.564Z,9.40
2018-06-07T15:54:31.976Z,8.70
2018-06-07T15:56:59.338Z,8.60
2018-06-07T15:59:26.729Z,8.83
2018-06-07T16:01:54.032Z,8.33
2018-06-07T16:04:22.275Z,7.60
2018-06-07T16:06:49.661Z,8.57
2018-06-07T16:09:17.103Z,8.40
2018-06-07T16:11:44.498Z,7.50
2018-06-07T16:14:11.913Z,9.00
2018-06-07T16:16:39.344Z,8.80
2018-06-07T16:19:06.771Z,8.63
2018-06-07T16:21:34.178Z,8.60
2018-06-07T16:24:01.533Z,8.40
2018-06-07T16:26:28.858Z,9.00
2018-06-07T16:28:56.347Z,8.50
2018-06-07T16:31:23.721Z,8.80
2018-06-07T16:33:51.112Z,8.97
2018-06-07T16:36:18.556Z,8.47
2018-06-07T16:38:45.956Z,8.80
2018-06-07T16:41:14.336Z,8.90
2018-06-07T16:43:41.677Z,8.93
2018-06-07T16:46:09.095Z,8.50
2018-06-07T16:48:36.454Z,8.40
2018-06-07T16:51:03.835Z,8.70
2018-06-07T16:53:31.189Z,8.80
2018-06-07T16:55:58.548Z,8.57
2018-06-07T16:58:25.945Z,8.80
2018-06-07T17:00:53.311Z,10.10
2018-06-07T17:03:20.721Z,9.00
2018-06-07T17:05:48.119Z,8.80
2018-06-07T17:08:16.468Z,10.03
2018-06-07T17:10:43.841Z,9.70
2018-06-07T17:13:11.286Z,9.00
2018-06-07T17:15:38.677Z,9.80
2018-06-07T17:18:06.194Z,9.10
2018-06-07T17:20:38.304Z,9.23
2018-06-07T17:23:05.920Z,9.87
2018-06-07T17:25:34.059Z,9.57
2018-06-07T17:28:01.893Z,9.60
2018-06-07T17:30:30.894Z,8.53
2018-06-07T17:32:58.382Z,9.97
2018-06-07T17:35:25.838Z,9.70
2018-06-07T17:37:53.334Z,10.43
2018-06-07T17:40:20.762Z,12.87
2018-06-07T17:42:50.232Z,12.90
2018-06-07T17:45:17.723Z,12.37
2018-06-07T17:47:49.909Z,13.43
2018-06-07T17:50:17.383Z,14.40
2018-06-07T17:52:46.316Z,14.90
2018-06-07T17:55:18.317Z,14.83
2018-06-07T17:57:53.329Z,14.73
2018-06-07T18:00:21.278Z,13.97
2018-06-07T18:02:50.079Z,14.63
2018-06-07T18:05:17.858Z,15.57
2018-06-07T18:07:45.344Z,15.50
2018-06-07T18:10:12.780Z,14.40
2018-06-07T18:12:40.297Z,14.93
2018-06-07T18:15:07.778Z,13.33
2018-06-07T18:17:35.454Z,13.87
2018-06-07T18:20:03.311Z,15.30
2018-06-07T18:22:30.976Z,13.40
2018-06-07T18:24:58.513Z,15.50
2018-06-07T18:27:30.339Z,14.53
2018-06-07T18:29:59.683Z,14.37
2018-06-07T18:32:27.699Z,14.10
2018-06-07T18:34:55.262Z,14.17
2018-06-07T18:37:27.058Z,15.30
2018-06-07T18:39:58.642Z,15.23
2018-06-07T18:42:26.916Z,15.23
2018-06-07T18:44:57.249Z,15.90
2018-06-07T18:47:24.798Z,16.93
2018-06-07T18:49:53.044Z,17.30
2018-06-07T18:52:21.999Z,16.77
2018-06-07T18:54:49.625Z,18.23
2018-06-07T18:57:18.381Z,15.60
2018-06-07T18:59:51.238Z,17.80
2018-06-07T19:02:18.747Z,16.73
2018-06-07T19:04:46.295Z,15.60
2018-06-07T19:07:19.133Z,16.27
2018-06-07T19:09:52.198Z,15.50
2018-06-07T19:12:21.092Z,17.17
2018-06-07T19:14:54.029Z,17.00
2018-06-07T19:17:21.501Z,17.60
2018-06-07T19:19:54.442Z,17.37
2018-06-07T19:22:21.943Z,18.90
2018-06-07T19:27:00.548Z,16.70
2018-06-07T19:29:28.182Z,18.13
2018-06-07T19:32:02.814Z,18.87
2018-06-07T19:34:35.880Z,18.27
2018-06-07T19:37:03.551Z,18.60
2018-06-07T19:39:36.412Z,18.60
2018-06-07T19:42:08.710Z,20.93
2018-06-07T19:44:36.618Z,21.10
2018-06-07T19:47:04.317Z,20.27
2018-06-07T19:49:37.749Z,19.20
2018-06-07T19:52:05.429Z,21.90
2018-06-07T19:54:33.276Z,21.10
2018-06-07T20:06:46.679Z,19.77
2018-06-07T20:09:14.372Z,19.23
2018-06-07T20:11:46.447Z,20.80
2018-06-07T20:14:14.350Z,20.10
2018-06-07T20:16:42.214Z,19.73
2018-06-07T20:19:15.200Z,21.17
2018-06-07T20:21:43.022Z,23.00
2018-06-07T20:24:11.662Z,21.00
2018-06-07T20:26:39.849Z,21.07
2018-06-07T20:29:11.686Z,22.30
2018-06-07T20:31:41.132Z,19.97
2018-06-07T20:34:14.272Z,23.77
2018-06-07T20:36:41.782Z,20.30
2018-06-07T20:39:14.489Z,21.27
2018-06-07T20:41:46.236Z,20.73
2018-06-07T20:44:14.154Z,20.50
2018-06-07T20:46:42.481Z,23.23
2018-06-07T20:49:10.700Z,22.07
2018-06-07T20:51:41.576Z,23.13
2018-06-07T20:54:14.494Z,22.33
2018-06-07T21:06:27.974Z,23.17
2018-06-07T21:08:56.751Z,22.90
2018-06-07T21:11:24.288Z,22.07
2018-06-07T21:13:52.745Z,22.00
2018-06-07T21:16:21.542Z,22.10
2018-06-07T21:18:50.333Z,18.90
2018-06-07T21:21:17.755Z,19.90
2018-06-07T21:23:49.475Z,21.40
2018-06-07T21:26:22.762Z,18.77
2018-06-07T21:28:50.544Z,20.70
2018-06-07T21:31:18.718Z,19.40
2018-06-07T21:33:51.052Z,21.17
2018-06-07T21:46:05.107Z,20.30
2018-06-07T21:58:18.595Z,20.97
2018-06-07T22:00:51.022Z,20.67
2018-06-07T22:03:18.355Z,20.40
2018-06-07T22:05:45.801Z,21.30
2018-06-07T22:08:13.830Z,21.00
2018-06-07T22:10:43.812Z,23.20
2018-06-07T22:13:12.054Z,23.67
2018-06-07T22:15:44.915Z,22.63
2018-06-07T22:27:58.113Z,24.77
2018-06-07T22:30:26.026Z,26.13
2018-06-07T22:32:55.456Z,28.07
2018-06-07T22:35:23.466Z,27.93
2018-06-07T22:37:53.019Z,28.57
2018-06-07T22:40:31.135Z,29.63
2018-06-07T22:43:08.813Z,28.70
2018-06-07T22:45:37.513Z,29.00
2018-06-07T22:48:05.652Z,28.23
2018-06-07T22:50:33.030Z,28.20
2018-06-07T22:53:04.893Z,29.80
2018-06-07T22:55:34.088Z,32.50
2018-06-07T22:58:01.546Z,31.63
2018-06-07T23:00:35.080Z,29.30
2018-06-07T23:03:02.527Z,29.47
2018-06-07T23:05:30.693Z,29.97
2018-06-07T23:07:58.222Z,30.90
2018-06-07T23:10:28.367Z,31.30
2018-06-07T23:12:57.261Z,29.23
2018-06-07T23:15:25.650Z,32.50
2018-06-07T23:17:53.084Z,31.77
2018-06-07T23:20:25.889Z,31.40
2018-06-07T23:22:53.898Z,30.50
2018-06-07T23:25:21.253Z,30.40
2018-06-07T23:27:52.723Z,31.47
2018-06-07T23:30:21.772Z,30.90
2018-06-07T23:32:49.347Z,31.60
2018-06-07T23:35:20.769Z,31.50
2018-06-07T23:37:53.129Z,35.70
2018-06-07T23:40:29.078Z,34.67
2018-06-07T23:42:57.788Z,35.30
2018-06-07T23:45:25.082Z,32.73
2018-06-07T23:47:52.474Z,34.87
2018-06-07T23:50:20.947Z,32.80
2018-06-07T23:52:49.273Z,32.40
2018-06-07T23:55:17.522Z,32.17
2018-06-07T23:57:45.279Z,34.30
